UUOO  Voronezh International Airport

Add Bookmark

Voronezh, Russian Federation

Status IATA
Operational VOZ
Latitude Longitude
51° 48' 51" N 39° 13' 46" E
51.814201 39.229599
Local (DST + 4) UTC (GMT + 4)
Jul 24, 2014 11:25 Jul 24, 2014 19:25
Sunrise-Sunset Local UTC
Begin Civil Twilight 04:49 00:49
Sunrise 05:32 01:32
Sunset 09:26 17:26
End Civil Twilight 10:10 18:10

Current Weather

METAR Observed VFR
UUOO 241900Z 00000MPS CAVOK 16/09 Q1013 NOSIG Thu, Jul 24, 2014 @ 19:00 UTC
(25 Minutes ago)
Visual Flight Rules

Decoded METAR

Wind Visibility Clouds Conditions
Calm 10 km or more
  • Clear skies
  • No significant weather
Temperatures Readings Precipitation
Current Temp 16°C (61°F)
Dewpoint 9°C (48°F)
Humidity 63%
Altimeter 29.91"Hg
Sea Level Pressure 1013mb
Field Elevation 515.09'
None Recorded

Forecast Weather

TAF
TAF UUOO 241700Z 2418/2503 VRB02MPS CAVOK
From To
Thu, Jul 24, 2014 @ 18:00 UTC Fri, Jul 25, 2014 @ 03:00 UTC
Wind Visibility Conditions
Varies at 4 knots (7 kph) 10 km or more
  • No significant weather

24 Hour Weather History

Loading
-

24 Hour Weather Graphs

Loading
-

CheckWX.com is intended as a tool to help pilots better visualize weather data. It is not intended as a substitute for an official weather briefing obtained from a Flight Service Station. CheckWX.com does not meet the FAA requirements for an official pre-flight weather briefing. Therefore, it's important that pilots still call and obtain an official FSS pre-flight weather briefing.